sensor_id;sensor_type;location;lat;lon;timestamp;temperature;humidity
9466;DHT22;4771;48.726;9.006;2023-03-25T00:00:21;8.50;99.90
9466;DHT22;4771;48.726;9.006;2023-03-25T00:02:50;8.60;99.90
9466;DHT22;4771;48.726;9.006;2023-03-25T00:05:19;8.20;99.90
9466;DHT22;4771;48.726;9.006;2023-03-25T00:07:50;8.30;99.90
9466;DHT22;4771;48.726;9.006;2023-03-25T00:10:18;8.30;99.90
9466;DHT22;4771;48.726;9.006;2023-03-25T00:12:45;8.10;99.90
9466;DHT22;4771;48.726;9.006;2023-03-25T00:15:12;8.30;99.90
9466;DHT22;4771;48.726;9.006;2023-03-25T00:17:40;8.30;99.90
9466;DHT22;4771;48.726;9.006;2023-03-25T00:20:09;8.40;99.90
9466;DHT22;4771;48.726;9.006;2023-03-25T00:22:37;8.30;99.90
9466;DHT22;4771;48.726;9.006;2023-03-25T00:25:08;8.40;99.90
9466;DHT22;4771;48.726;9.006;2023-03-25T00:27:35;8.30;99.90
9466;DHT22;4771;48.726;9.006;2023-03-25T00:30:03;8.30;99.90
9466;DHT22;4771;48.726;9.006;2023-03-25T00:32:31;8.40;99.90
9466;DHT22;4771;48.726;9.006;2023-03-25T00:34:57;8.50;99.90
9466;DHT22;4771;48.726;9.006;2023-03-25T00:37:24;8.40;99.90
9466;DHT22;4771;48.726;9.006;2023-03-25T00:39:51;8.50;99.90
9466;DHT22;4771;48.726;9.006;2023-03-25T00:42:20;8.50;99.90
9466;DHT22;4771;48.726;9.006;2023-03-25T00:44:50;8.50;99.90
9466;DHT22;4771;48.726;9.006;2023-03-25T00:47:17;8.50;99.90
9466;DHT22;4771;48.726;9.006;2023-03-25T00:49:46;8.50;99.90
9466;DHT22;4771;48.726;9.006;2023-03-25T00:52:13;8.60;99.90
9466;DHT22;4771;48.726;9.006;2023-03-25T00:54:40;8.60;99.90
9466;DHT22;4771;48.726;9.006;2023-03-25T00:57:07;8.50;99.90
9466;DHT22;4771;48.726;9.006;2023-03-25T00:59:36;8.50;99.90
9466;DHT22;4771;48.726;9.006;2023-03-25T01:02:03;8.50;99.90
9466;DHT22;4771;48.726;9.006;2023-03-25T01:04:31;8.40;99.90
9466;DHT22;4771;48.726;9.006;2023-03-25T01:06:58;8.40;99.90
9466;DHT22;4771;48.726;9.006;2023-03-25T01:09:26;8.40;99.90
9466;DHT22;4771;48.726;9.006;2023-03-25T01:11:53;8.40;99.90
9466;DHT22;4771;48.726;9.006;2023-03-25T01:14:21;8.40;99.90
9466;DHT22;4771;48.726;9.006;2023-03-25T01:16:53;8.40;99.90
9466;DHT22;4771;48.726;9.006;2023-03-25T01:19:21;8.40;99.90
9466;DHT22;4771;48.726;9.006;2023-03-25T01:21:48;8.50;99.90
9466;DHT22;4771;48.726;9.006;2023-03-25T01:24:15;8.60;99.90
9466;DHT22;4771;48.726;9.006;2023-03-25T01:26:43;8.40;99.90
9466;DHT22;4771;48.726;9.006;2023-03-25T01:29:12;8.40;99.90
9466;DHT22;4771;48.726;9.006;2023-03-25T01:31:39;8.40;99.90
9466;DHT22;4771;48.726;9.006;2023-03-25T01:34:07;8.50;99.90
9466;DHT22;4771;48.726;9.006;2023-03-25T01:36:34;8.40;99.90
9466;DHT22;4771;48.726;9.006;2023-03-25T01:39:03;8.40;99.90
9466;DHT22;4771;48.726;9.006;2023-03-25T01:41:31;8.50;99.90
9466;DHT22;4771;48.726;9.006;2023-03-25T01:44:03;8.40;99.90
9466;DHT22;4771;48.726;9.006;2023-03-25T01:46:30;8.40;99.90
9466;DHT22;4771;48.726;9.006;2023-03-25T01:48:58;8.30;99.90
9466;DHT22;4771;48.726;9.006;2023-03-25T01:51:29;8.40;99.90
9466;DHT22;4771;48.726;9.006;2023-03-25T01:53:57;8.20;99.90
9466;DHT22;4771;48.726;9.006;2023-03-25T01:56:27;8.30;99.90
9466;DHT22;4771;48.726;9.006;2023-03-25T01:58:57;8.20;99.90
9466;DHT22;4771;48.726;9.006;2023-03-25T02:01:25;8.20;99.90
9466;DHT22;4771;48.726;9.006;2023-03-25T02:03:53;8.20;99.90
9466;DHT22;4771;48.726;9.006;2023-03-25T02:06:32;8.30;99.90
9466;DHT22;4771;48.726;9.006;2023-03-25T02:09:02;8.30;99.90
9466;DHT22;4771;48.726;9.006;2023-03-25T02:11:31;8.30;99.90
9466;DHT22;4771;48.726;9.006;2023-03-25T02:14:01;8.30;99.90
9466;DHT22;4771;48.726;9.006;2023-03-25T02:16:34;8.30;99.90
9466;DHT22;4771;48.726;9.006;2023-03-25T02:22:33;8.30;99.90
9466;DHT22;4771;48.726;9.006;2023-03-25T02:28:08;8.40;99.90
9466;DHT22;4771;48.726;9.006;2023-03-25T02:30:50;8.40;99.90
9466;DHT22;4771;48.726;9.006;2023-03-25T02:33:50;8.40;99.90
9466;DHT22;4771;48.726;9.006;2023-03-25T02:36:39;8.70;99.90
9466;DHT22;4771;48.726;9.006;2023-03-25T02:39:19;8.40;99.90
9466;DHT22;4771;48.726;9.006;2023-03-25T02:41:52;8.40;99.90
9466;DHT22;4771;48.726;9.006;2023-03-25T02:44:26;8.10;99.90
9466;DHT22;4771;48.726;9.006;2023-03-25T02:46:59;8.10;99.90
9466;DHT22;4771;48.726;9.006;2023-03-25T02:49:30;8.10;99.90
9466;DHT22;4771;48.726;9.006;2023-03-25T02:52:03;8.20;99.90
9466;DHT22;4771;48.726;9.006;2023-03-25T02:54:33;7.80;99.90
9466;DHT22;4771;48.726;9.006;2023-03-25T02:57:02;7.60;99.90
9466;DHT22;4771;48.726;9.006;2023-03-25T02:59:30;7.70;99.90
9466;DHT22;4771;48.726;9.006;2023-03-25T03:01:59;7.70;99.90
9466;DHT22;4771;48.726;9.006;2023-03-25T03:04:28;7.50;99.90
9466;DHT22;4771;48.726;9.006;2023-03-25T03:06:55;7.60;99.90
9466;DHT22;4771;48.726;9.006;2023-03-25T03:09:36;7.50;99.90
9466;DHT22;4771;48.726;9.006;2023-03-25T03:12:19;7.50;99.90
9466;DHT22;4771;48.726;9.006;2023-03-25T03:15:00;7.60;99.90
9466;DHT22;4771;48.726;9.006;2023-03-25T03:17:36;7.50;99.90
9466;DHT22;4771;48.726;9.006;2023-03-25T03:20:15;7.50;99.90
9466;DHT22;4771;48.726;9.006;2023-03-25T03:22:46;7.60;99.90
9466;DHT22;4771;48.726;9.006;2023-03-25T03:25:22;7.70;99.90
9466;DHT22;4771;48.726;9.006;2023-03-25T03:27:54;7.70;99.90
9466;DHT22;4771;48.726;9.006;2023-03-25T03:30:25;7.70;99.90
9466;DHT22;4771;48.726;9.006;2023-03-25T03:33:00;7.80;99.90
9466;DHT22;4771;48.726;9.006;2023-03-25T03:35:32;7.80;99.90
9466;DHT22;4771;48.726;9.006;2023-03-25T03:38:06;7.70;99.90
9466;DHT22;4771;48.726;9.006;2023-03-25T03:40:37;7.00;99.90
9466;DHT22;4771;48.726;9.006;2023-03-25T03:43:09;7.70;99.90
9466;DHT22;4771;48.726;9.006;2023-03-25T03:45:43;7.80;99.90
9466;DHT22;4771;48.726;9.006;2023-03-25T03:48:16;7.80;99.90
9466;DHT22;4771;48.726;9.006;2023-03-25T03:50:48;7.80;99.90
9466;DHT22;4771;48.726;9.006;2023-03-25T03:53:19;7.80;99.90
9466;DHT22;4771;48.726;9.006;2023-03-25T03:55:52;7.70;99.90
9466;DHT22;4771;48.726;9.006;2023-03-25T03:58:26;7.70;99.90
9466;DHT22;4771;48.726;9.006;2023-03-25T04:01:00;7.90;99.90
9466;DHT22;4771;48.726;9.006;2023-03-25T04:03:30;7.80;99.90
9466;DHT22;4771;48.726;9.006;2023-03-25T04:06:02;7.80;99.90
9466;DHT22;4771;48.726;9.006;2023-03-25T04:08:35;7.80;99.90
9466;DHT22;4771;48.726;9.006;2023-03-25T04:11:06;7.80;99.90
9466;DHT22;4771;48.726;9.006;2023-03-25T04:13:38;7.80;99.90
9466;DHT22;4771;48.726;9.006;2023-03-25T04:16:06;7.80;99.90
9466;DHT22;4771;48.726;9.006;2023-03-25T04:18:33;7.80;99.90
9466;DHT22;4771;48.726;9.006;2023-03-25T04:21:00;7.80;99.90
9466;DHT22;4771;48.726;9.006;2023-03-25T04:23:28;7.80;99.90
9466;DHT22;4771;48.726;9.006;2023-03-25T04:25:56;7.90;99.90
9466;DHT22;4771;48.726;9.006;2023-03-25T04:28:28;7.90;99.90
9466;DHT22;4771;48.726;9.006;2023-03-25T04:30:56;7.80;99.90
9466;DHT22;4771;48.726;9.006;2023-03-25T04:33:25;7.90;99.90
9466;DHT22;4771;48.726;9.006;2023-03-25T04:35:54;7.80;99.90
9466;DHT22;4771;48.726;9.006;2023-03-25T04:38:21;7.80;99.90
9466;DHT22;4771;48.726;9.006;2023-03-25T04:40:48;7.80;99.90
9466;DHT22;4771;48.726;9.006;2023-03-25T04:43:15;7.80;99.90
9466;DHT22;4771;48.726;9.006;2023-03-25T04:45:43;7.80;99.90
9466;DHT22;4771;48.726;9.006;2023-03-25T04:48:20;7.80;99.90
9466;DHT22;4771;48.726;9.006;2023-03-25T04:50:48;7.80;99.90
9466;DHT22;4771;48.726;9.006;2023-03-25T04:53:16;7.90;99.90
9466;DHT22;4771;48.726;9.006;2023-03-25T04:55:43;7.80;99.90
9466;DHT22;4771;48.726;9.006;2023-03-25T04:58:12;7.80;99.90
9466;DHT22;4771;48.726;9.006;2023-03-25T05:00:40;7.70;99.90
9466;DHT22;4771;48.726;9.006;2023-03-25T05:03:09;7.80;99.90
9466;DHT22;4771;48.726;9.006;2023-03-25T05:05:37;7.70;99.90
9466;DHT22;4771;48.726;9.006;2023-03-25T05:08:04;7.70;99.90
9466;DHT22;4771;48.726;9.006;2023-03-25T05:10:33;7.70;99.90
9466;DHT22;4771;48.726;9.006;2023-03-25T05:13:02;7.80;99.90
9466;DHT22;4771;48.726;9.006;2023-03-25T05:15:30;7.70;99.90
9466;DHT22;4771;48.726;9.006;2023-03-25T05:18:00;7.70;99.90
9466;DHT22;4771;48.726;9.006;2023-03-25T05:20:28;7.70;99.90
9466;DHT22;4771;48.726;9.006;2023-03-25T05:22:57;7.70;99.90
9466;DHT22;4771;48.726;9.006;2023-03-25T05:25:24;7.80;99.90
9466;DHT22;4771;48.726;9.006;2023-03-25T05:27:51;7.40;99.90
9466;DHT22;4771;48.726;9.006;2023-03-25T05:30:19;7.80;99.90
9466;DHT22;4771;48.726;9.006;2023-03-25T05:32:45;7.90;99.90
9466;DHT22;4771;48.726;9.006;2023-03-25T05:35:15;7.90;99.90
9466;DHT22;4771;48.726;9.006;2023-03-25T05:37:44;7.90;99.90
9466;DHT22;4771;48.726;9.006;2023-03-25T05:40:11;8.00;99.90
9466;DHT22;4771;48.726;9.006;2023-03-25T05:42:38;8.00;99.90
9466;DHT22;4771;48.726;9.006;2023-03-25T05:45:13;8.00;99.90
9466;DHT22;4771;48.726;9.006;2023-03-25T05:47:41;8.10;99.90
9466;DHT22;4771;48.726;9.006;2023-03-25T05:50:09;8.10;99.90
9466;DHT22;4771;48.726;9.006;2023-03-25T05:52:36;8.10;99.90
9466;DHT22;4771;48.726;9.006;2023-03-25T05:55:10;8.00;99.90
9466;DHT22;4771;48.726;9.006;2023-03-25T05:57:40;8.00;99.90
9466;DHT22;4771;48.726;9.006;2023-03-25T06:00:08;8.10;99.90
9466;DHT22;4771;48.726;9.006;2023-03-25T06:02:37;8.00;99.90
9466;DHT22;4771;48.726;9.006;2023-03-25T06:05:08;8.00;99.90
9466;DHT22;4771;48.726;9.006;2023-03-25T06:07:38;8.10;99.90
9466;DHT22;4771;48.726;9.006;2023-03-25T06:10:09;8.10;99.90
9466;DHT22;4771;48.726;9.006;2023-03-25T06:12:36;8.10;99.90
9466;DHT22;4771;48.726;9.006;2023-03-25T06:15:05;8.10;99.90
9466;DHT22;4771;48.726;9.006;2023-03-25T06:17:33;8.70;99.90
9466;DHT22;4771;48.726;9.006;2023-03-25T06:20:03;8.10;99.90
9466;DHT22;4771;48.726;9.006;2023-03-25T06:22:36;8.00;99.90
9466;DHT22;4771;48.726;9.006;2023-03-25T06:25:04;8.00;99.90
9466;DHT22;4771;48.726;9.006;2023-03-25T06:27:32;8.00;99.90
9466;DHT22;4771;48.726;9.006;2023-03-25T06:30:06;8.00;99.90
9466;DHT22;4771;48.726;9.006;2023-03-25T06:32:33;8.00;99.90
9466;DHT22;4771;48.726;9.006;2023-03-25T06:34:59;8.00;99.90
9466;DHT22;4771;48.726;9.006;2023-03-25T06:37:27;7.90;99.90
9466;DHT22;4771;48.726;9.006;2023-03-25T06:39:54;8.00;99.90
9466;DHT22;4771;48.726;9.006;2023-03-25T06:42:24;8.10;99.90
9466;DHT22;4771;48.726;9.006;2023-03-25T06:44:53;8.00;99.90
9466;DHT22;4771;48.726;9.006;2023-03-25T06:47:20;7.90;99.90
9466;DHT22;4771;48.726;9.006;2023-03-25T06:49:48;7.90;99.90
9466;DHT22;4771;48.726;9.006;2023-03-25T06:52:15;7.90;99.90
9466;DHT22;4771;48.726;9.006;2023-03-25T06:54:41;8.00;99.90
9466;DHT22;4771;48.726;9.006;2023-03-25T06:57:08;8.20;99.90
9466;DHT22;4771;48.726;9.006;2023-03-25T06:59:35;8.00;99.90
9466;DHT22;4771;48.726;9.006;2023-03-25T07:02:03;8.10;99.90
9466;DHT22;4771;48.726;9.006;2023-03-25T07:04:30;8.20;99.90
9466;DHT22;4771;48.726;9.006;2023-03-25T07:06:57;8.20;99.90
9466;DHT22;4771;48.726;9.006;2023-03-25T07:09:24;8.20;99.90
9466;DHT22;4771;48.726;9.006;2023-03-25T07:11:51;8.00;99.90
9466;DHT22;4771;48.726;9.006;2023-03-25T07:14:18;8.10;99.90
9466;DHT22;4771;48.726;9.006;2023-03-25T07:16:45;8.00;99.90
9466;DHT22;4771;48.726;9.006;2023-03-25T07:19:13;8.10;99.90
9466;DHT22;4771;48.726;9.006;2023-03-25T07:21:40;8.20;99.90
9466;DHT22;4771;48.726;9.006;2023-03-25T07:24:07;8.20;99.90
9466;DHT22;4771;48.726;9.006;2023-03-25T07:26:34;8.30;99.90
9466;DHT22;4771;48.726;9.006;2023-03-25T07:29:01;8.20;99.90
9466;DHT22;4771;48.726;9.006;2023-03-25T07:31:28;8.20;99.90
9466;DHT22;4771;48.726;9.006;2023-03-25T07:33:55;8.30;99.90
9466;DHT22;4771;48.726;9.006;2023-03-25T07:36:25;8.40;99.90
9466;DHT22;4771;48.726;9.006;2023-03-25T07:38:52;8.40;99.90
9466;DHT22;4771;48.726;9.006;2023-03-25T07:41:19;8.40;99.90
9466;DHT22;4771;48.726;9.006;2023-03-25T07:43:46;8.40;99.90
9466;DHT22;4771;48.726;9.006;2023-03-25T07:46:13;8.50;99.90
9466;DHT22;4771;48.726;9.006;2023-03-25T07:48:40;8.50;99.90
9466;DHT22;4771;48.726;9.006;2023-03-25T07:51:07;8.60;99.90
9466;DHT22;4771;48.726;9.006;2023-03-25T07:53:35;8.50;99.90
9466;DHT22;4771;48.726;9.006;2023-03-25T07:56:04;8.70;99.90
9466;DHT22;4771;48.726;9.006;2023-03-25T07:58:31;8.60;99.90
9466;DHT22;4771;48.726;9.006;2023-03-25T08:00:58;8.70;99.90
9466;DHT22;4771;48.726;9.006;2023-03-25T08:03:25;8.80;99.90
9466;DHT22;4771;48.726;9.006;2023-03-25T08:05:53;8.80;99.90
9466;DHT22;4771;48.726;9.006;2023-03-25T08:08:20;8.80;99.90
9466;DHT22;4771;48.726;9.006;2023-03-25T08:10:50;8.90;99.90
9466;DHT22;4771;48.726;9.006;2023-03-25T08:13:17;8.80;99.90
9466;DHT22;4771;48.726;9.006;2023-03-25T08:15:44;8.90;99.90
9466;DHT22;4771;48.726;9.006;2023-03-25T08:18:11;9.00;99.90
9466;DHT22;4771;48.726;9.006;2023-03-25T08:20:38;9.10;99.90
9466;DHT22;4771;48.726;9.006;2023-03-25T08:23:05;9.00;99.90
9466;DHT22;4771;48.726;9.006;2023-03-25T08:25:35;9.00;99.90
9466;DHT22;4771;48.726;9.006;2023-03-25T08:28:04;8.90;99.90
9466;DHT22;4771;48.726;9.006;2023-03-25T08:30:31;8.90;99.90
9466;DHT22;4771;48.726;9.006;2023-03-25T08:33:02;8.80;99.90
9466;DHT22;4771;48.726;9.006;2023-03-25T08:35:29;8.80;99.90
9466;DHT22;4771;48.726;9.006;2023-03-25T08:37:56;8.70;99.90
9466;DHT22;4771;48.726;9.006;2023-03-25T08:40:26;8.70;99.90
9466;DHT22;4771;48.726;9.006;2023-03-25T08:42:53;8.50;99.90
9466;DHT22;4771;48.726;9.006;2023-03-25T08:45:21;8.80;99.90
9466;DHT22;4771;48.726;9.006;2023-03-25T08:47:48;8.20;99.90
9466;DHT22;4771;48.726;9.006;2023-03-25T08:50:15;8.20;99.90
9466;DHT22;4771;48.726;9.006;2023-03-25T08:52:42;8.20;99.90
9466;DHT22;4771;48.726;9.006;2023-03-25T08:55:10;8.20;99.90
9466;DHT22;4771;48.726;9.006;2023-03-25T08:57:41;8.00;99.90
9466;DHT22;4771;48.726;9.006;2023-03-25T09:00:09;8.00;99.90
9466;DHT22;4771;48.726;9.006;2023-03-25T09:02:40;8.00;99.90
9466;DHT22;4771;48.726;9.006;2023-03-25T09:05:08;8.00;99.90
9466;DHT22;4771;48.726;9.006;2023-03-25T09:07:35;8.10;99.90
9466;DHT22;4771;48.726;9.006;2023-03-25T09:10:02;8.20;99.90
9466;DHT22;4771;48.726;9.006;2023-03-25T09:12:29;8.20;99.90
9466;DHT22;4771;48.726;9.006;2023-03-25T09:14:56;8.30;99.90
9466;DHT22;4771;48.726;9.006;2023-03-25T09:17:23;8.30;99.90
9466;DHT22;4771;48.726;9.006;2023-03-25T09:19:53;8.40;99.90
9466;DHT22;4771;48.726;9.006;2023-03-25T09:22:20;8.50;99.90
9466;DHT22;4771;48.726;9.006;2023-03-25T09:24:47;8.50;99.90
9466;DHT22;4771;48.726;9.006;2023-03-25T09:27:13;8.50;99.90
9466;DHT22;4771;48.726;9.006;2023-03-25T09:29:40;8.60;99.90
9466;DHT22;4771;48.726;9.006;2023-03-25T09:32:07;8.60;99.90
9466;DHT22;4771;48.726;9.006;2023-03-25T09:34:34;8.50;99.90
9466;DHT22;4771;48.726;9.006;2023-03-25T09:37:04;8.60;99.90
9466;DHT22;4771;48.726;9.006;2023-03-25T09:39:31;8.70;99.90
9466;DHT22;4771;48.726;9.006;2023-03-25T09:42:07;8.80;99.90
9466;DHT22;4771;48.726;9.006;2023-03-25T09:44:42;8.80;99.90
9466;DHT22;4771;48.726;9.006;2023-03-25T09:47:14;8.90;99.90
9466;DHT22;4771;48.726;9.006;2023-03-25T09:49:45;8.90;99.90
9466;DHT22;4771;48.726;9.006;2023-03-25T09:52:23;8.80;99.90
9466;DHT22;4771;48.726;9.006;2023-03-25T09:54:52;8.90;99.90
9466;DHT22;4771;48.726;9.006;2023-03-25T09:57:23;9.10;99.90
9466;DHT22;4771;48.726;9.006;2023-03-25T09:59:52;9.10;99.90
9466;DHT22;4771;48.726;9.006;2023-03-25T10:02:30;9.10;99.90
9466;DHT22;4771;48.726;9.006;2023-03-25T10:05:28;9.00;99.90
9466;DHT22;4771;48.726;9.006;2023-03-25T10:08:08;9.20;99.90
9466;DHT22;4771;48.726;9.006;2023-03-25T10:10:43;9.40;99.90
9466;DHT22;4771;48.726;9.006;2023-03-25T10:13:15;9.60;99.90
9466;DHT22;4771;48.726;9.006;2023-03-25T10:15:51;9.70;99.90
9466;DHT22;4771;48.726;9.006;2023-03-25T10:18:29;9.90;99.90
9466;DHT22;4771;48.726;9.006;2023-03-25T10:21:04;9.80;99.90
9466;DHT22;4771;48.726;9.006;2023-03-25T10:23:37;9.90;99.90
9466;DHT22;4771;48.726;9.006;2023-03-25T10:26:10;9.90;99.90
9466;DHT22;4771;48.726;9.006;2023-03-25T10:28:42;9.70;99.90
9466;DHT22;4771;48.726;9.006;2023-03-25T10:31:14;9.90;99.90
9466;DHT22;4771;48.726;9.006;2023-03-25T10:33:46;10.20;99.90
9466;DHT22;4771;48.726;9.006;2023-03-25T10:36:16;10.10;99.90
9466;DHT22;4771;48.726;9.006;2023-03-25T10:38:51;10.20;99.90
9466;DHT22;4771;48.726;9.006;2023-03-25T10:41:24;10.20;99.90
9466;DHT22;4771;48.726;9.006;2023-03-25T10:43:52;10.30;99.90
9466;DHT22;4771;48.726;9.006;2023-03-25T10:46:25;10.20;99.90
9466;DHT22;4771;48.726;9.006;2023-03-25T10:48:54;10.20;99.90
9466;DHT22;4771;48.726;9.006;2023-03-25T10:51:24;10.50;99.90
9466;DHT22;4771;48.726;9.006;2023-03-25T10:53:54;10.30;99.90
9466;DHT22;4771;48.726;9.006;2023-03-25T10:56:23;10.40;99.90
9466;DHT22;4771;48.726;9.006;2023-03-25T10:58:52;10.30;99.90
9466;DHT22;4771;48.726;9.006;2023-03-25T11:01:35;10.30;99.90
9466;DHT22;4771;48.726;9.006;2023-03-25T11:04:04;10.30;99.90
9466;DHT22;4771;48.726;9.006;2023-03-25T11:06:35;10.40;99.90
9466;DHT22;4771;48.726;9.006;2023-03-25T11:09:13;10.40;99.90
9466;DHT22;4771;48.726;9.006;2023-03-25T11:11:43;10.30;99.90
9466;DHT22;4771;48.726;9.006;2023-03-25T11:14:11;10.50;99.90
9466;DHT22;4771;48.726;9.006;2023-03-25T11:16:42;10.40;99.90
9466;DHT22;4771;48.726;9.006;2023-03-25T11:19:17;10.50;99.90
9466;DHT22;4771;48.726;9.006;2023-03-25T11:21:47;10.60;99.90
9466;DHT22;4771;48.726;9.006;2023-03-25T11:24:17;10.60;99.90
9466;DHT22;4771;48.726;9.006;2023-03-25T11:26:45;10.60;99.90
9466;DHT22;4771;48.726;9.006;2023-03-25T11:29:18;10.50;99.90
9466;DHT22;4771;48.726;9.006;2023-03-25T11:31:56;10.80;99.90
9466;DHT22;4771;48.726;9.006;2023-03-25T11:34:23;11.10;99.90
9466;DHT22;4771;48.726;9.006;2023-03-25T11:36:53;11.50;99.90
9466;DHT22;4771;48.726;9.006;2023-03-25T11:39:29;11.70;99.90
9466;DHT22;4771;48.726;9.006;2023-03-25T11:41:58;12.00;99.90
9466;DHT22;4771;48.726;9.006;2023-03-25T11:44:27;12.30;99.90
9466;DHT22;4771;48.726;9.006;2023-03-25T11:46:58;12.60;99.90
9466;DHT22;4771;48.726;9.006;2023-03-25T11:49:26;12.70;99.90
9466;DHT22;4771;48.726;9.006;2023-03-25T11:52:01;12.70;99.90
9466;DHT22;4771;48.726;9.006;2023-03-25T11:54:31;12.70;99.90
9466;DHT22;4771;48.726;9.006;2023-03-25T11:57:02;12.80;99.90
9466;DHT22;4771;48.726;9.006;2023-03-25T11:59:36;13.00;99.90
9466;DHT22;4771;48.726;9.006;2023-03-25T12:02:17;13.00;99.90
9466;DHT22;4771;48.726;9.006;2023-03-25T12:04:55;13.00;99.90
9466;DHT22;4771;48.726;9.006;2023-03-25T12:07:22;13.00;99.90
9466;DHT22;4771;48.726;9.006;2023-03-25T12:09:55;12.60;99.90
9466;DHT22;4771;48.726;9.006;2023-03-25T12:12:32;12.40;99.90
9466;DHT22;4771;48.726;9.006;2023-03-25T12:15:13;12.20;99.90
9466;DHT22;4771;48.726;9.006;2023-03-25T12:17:54;12.30;99.90
9466;DHT22;4771;48.726;9.006;2023-03-25T12:20:26;12.10;99.90
9466;DHT22;4771;48.726;9.006;2023-03-25T12:22:59;12.00;99.90
9466;DHT22;4771;48.726;9.006;2023-03-25T12:25:38;12.10;99.90
9466;DHT22;4771;48.726;9.006;2023-03-25T12:28:29;12.10;99.90
9466;DHT22;4771;48.726;9.006;2023-03-25T12:31:02;12.00;99.90
9466;DHT22;4771;48.726;9.006;2023-03-25T12:33:45;12.10;99.90
9466;DHT22;4771;48.726;9.006;2023-03-25T12:36:22;11.50;99.90
9466;DHT22;4771;48.726;9.006;2023-03-25T12:39:00;11.40;99.90
9466;DHT22;4771;48.726;9.006;2023-03-25T12:41:36;11.00;99.90
9466;DHT22;4771;48.726;9.006;2023-03-25T12:44:09;10.90;99.90
9466;DHT22;4771;48.726;9.006;2023-03-25T12:47:00;10.50;99.90
9466;DHT22;4771;48.726;9.006;2023-03-25T12:49:47;10.50;99.90
9466;DHT22;4771;48.726;9.006;2023-03-25T12:52:21;10.50;99.90
9466;DHT22;4771;48.726;9.006;2023-03-25T12:55:01;10.50;99.90
9466;DHT22;4771;48.726;9.006;2023-03-25T12:57:44;10.70;99.90
9466;DHT22;4771;48.726;9.006;2023-03-25T13:00:21;10.80;99.90
9466;DHT22;4771;48.726;9.006;2023-03-25T13:05:58;11.30;99.90
9466;DHT22;4771;48.726;9.006;2023-03-25T13:08:29;11.40;99.90
9466;DHT22;4771;48.726;9.006;2023-03-25T13:11:04;11.40;99.90
9466;DHT22;4771;48.726;9.006;2023-03-25T13:13:34;11.30;99.90
9466;DHT22;4771;48.726;9.006;2023-03-25T13:16:07;11.00;99.90
9466;DHT22;4771;48.726;9.006;2023-03-25T13:18:38;11.20;99.90
9466;DHT22;4771;48.726;9.006;2023-03-25T13:21:10;11.10;99.90
9466;DHT22;4771;48.726;9.006;2023-03-25T13:23:41;11.30;99.90
9466;DHT22;4771;48.726;9.006;2023-03-25T13:26:10;11.20;99.90
9466;DHT22;4771;48.726;9.006;2023-03-25T13:28:43;11.30;99.90
9466;DHT22;4771;48.726;9.006;2023-03-25T13:31:14;11.00;99.90
9466;DHT22;4771;48.726;9.006;2023-03-25T13:33:44;11.20;99.90
9466;DHT22;4771;48.726;9.006;2023-03-25T13:36:18;11.30;99.90
9466;DHT22;4771;48.726;9.006;2023-03-25T13:38:50;11.40;99.90
9466;DHT22;4771;48.726;9.006;2023-03-25T13:41:22;11.50;99.90
9466;DHT22;4771;48.726;9.006;2023-03-25T13:44:01;11.50;99.90
9466;DHT22;4771;48.726;9.006;2023-03-25T13:46:33;11.60;99.90
9466;DHT22;4771;48.726;9.006;2023-03-25T13:49:05;11.70;99.90
9466;DHT22;4771;48.726;9.006;2023-03-25T13:51:37;11.70;99.90
9466;DHT22;4771;48.726;9.006;2023-03-25T13:54:07;11.90;99.90
9466;DHT22;4771;48.726;9.006;2023-03-25T13:57:00;12.00;99.90
9466;DHT22;4771;48.726;9.006;2023-03-25T14:00:05;12.10;99.90
9466;DHT22;4771;48.726;9.006;2023-03-25T14:02:51;12.20;99.90
9466;DHT22;4771;48.726;9.006;2023-03-25T14:08:43;11.70;99.90
9466;DHT22;4771;48.726;9.006;2023-03-25T14:11:20;11.40;99.90
9466;DHT22;4771;48.726;9.006;2023-03-25T14:13:51;11.30;99.90
9466;DHT22;4771;48.726;9.006;2023-03-25T14:16:23;11.00;99.90
9466;DHT22;4771;48.726;9.006;2023-03-25T14:18:54;11.20;99.90
9466;DHT22;4771;48.726;9.006;2023-03-25T14:21:31;11.30;99.90
9466;DHT22;4771;48.726;9.006;2023-03-25T14:24:02;11.30;99.90
9466;DHT22;4771;48.726;9.006;2023-03-25T14:26:31;11.40;99.90
9466;DHT22;4771;48.726;9.006;2023-03-25T14:29:04;11.60;99.90
9466;DHT22;4771;48.726;9.006;2023-03-25T14:31:34;11.60;99.90
9466;DHT22;4771;48.726;9.006;2023-03-25T14:34:12;11.70;99.90
9466;DHT22;4771;48.726;9.006;2023-03-25T14:37:10;11.80;99.90
9466;DHT22;4771;48.726;9.006;2023-03-25T14:39:37;11.60;99.90
9466;DHT22;4771;48.726;9.006;2023-03-25T14:42:11;11.40;99.90
9466;DHT22;4771;48.726;9.006;2023-03-25T14:44:49;11.50;99.90
9466;DHT22;4771;48.726;9.006;2023-03-25T14:47:28;11.60;99.90
9466;DHT22;4771;48.726;9.006;2023-03-25T14:50:03;11.80;99.90
9466;DHT22;4771;48.726;9.006;2023-03-25T14:52:35;11.90;99.90
9466;DHT22;4771;48.726;9.006;2023-03-25T14:55:07;12.00;99.90
9466;DHT22;4771;48.726;9.006;2023-03-25T14:57:39;12.20;99.90
9466;DHT22;4771;48.726;9.006;2023-03-25T15:00:08;12.30;99.90
9466;DHT22;4771;48.726;9.006;2023-03-25T15:02:40;12.40;99.90
9466;DHT22;4771;48.726;9.006;2023-03-25T15:05:16;12.50;99.90
9466;DHT22;4771;48.726;9.006;2023-03-25T15:07:46;12.50;99.90
9466;DHT22;4771;48.726;9.006;2023-03-25T15:10:21;12.60;99.90
9466;DHT22;4771;48.726;9.006;2023-03-25T15:12:52;12.70;99.90
9466;DHT22;4771;48.726;9.006;2023-03-25T15:15:30;12.80;99.50
9466;DHT22;4771;48.726;9.006;2023-03-25T15:17:59;12.70;95.60
9466;DHT22;4771;48.726;9.006;2023-03-25T15:20:31;12.80;97.50
9466;DHT22;4771;48.726;9.006;2023-03-25T15:26:08;12.80;98.90
9466;DHT22;4771;48.726;9.006;2023-03-25T15:29:06;12.80;98.60
9466;DHT22;4771;48.726;9.006;2023-03-25T15:31:50;12.80;98.70
9466;DHT22;4771;48.726;9.006;2023-03-25T15:34:44;12.70;99.40
9466;DHT22;4771;48.726;9.006;2023-03-25T15:40:23;12.80;99.90
9466;DHT22;4771;48.726;9.006;2023-03-25T15:43:22;12.70;99.90
9466;DHT22;4771;48.726;9.006;2023-03-25T15:49:05;12.70;99.70
9466;DHT22;4771;48.726;9.006;2023-03-25T15:51:52;12.60;95.80
9466;DHT22;4771;48.726;9.006;2023-03-25T15:54:31;12.50;96.40
9466;DHT22;4771;48.726;9.006;2023-03-25T15:57:02;12.50;95.30
9466;DHT22;4771;48.726;9.006;2023-03-25T15:59:37;12.40;94.60
9466;DHT22;4771;48.726;9.006;2023-03-25T16:02:20;12.30;94.80
9466;DHT22;4771;48.726;9.006;2023-03-25T16:04:49;12.20;94.40
9466;DHT22;4771;48.726;9.006;2023-03-25T16:07:21;12.20;92.70
9466;DHT22;4771;48.726;9.006;2023-03-25T16:09:50;12.00;93.70
9466;DHT22;4771;48.726;9.006;2023-03-25T16:12:22;13.00;94.30
9466;DHT22;4771;48.726;9.006;2023-03-25T16:14:50;12.20;94.20
9466;DHT22;4771;48.726;9.006;2023-03-25T16:17:19;12.10;94.10
9466;DHT22;4771;48.726;9.006;2023-03-25T16:19:50;12.20;95.60
9466;DHT22;4771;48.726;9.006;2023-03-25T16:22:23;12.20;94.70
9466;DHT22;4771;48.726;9.006;2023-03-25T16:24:53;12.20;97.00
9466;DHT22;4771;48.726;9.006;2023-03-25T16:27:24;12.00;95.80
9466;DHT22;4771;48.726;9.006;2023-03-25T16:29:52;11.80;97.10
9466;DHT22;4771;48.726;9.006;2023-03-25T16:32:21;11.80;96.90
9466;DHT22;4771;48.726;9.006;2023-03-25T16:34:48;11.80;97.30
9466;DHT22;4771;48.726;9.006;2023-03-25T16:37:16;11.70;97.20
9466;DHT22;4771;48.726;9.006;2023-03-25T16:39:49;11.80;98.70
9466;DHT22;4771;48.726;9.006;2023-03-25T16:42:23;11.80;99.60
9466;DHT22;4771;48.726;9.006;2023-03-25T16:44:51;11.70;98.20
9466;DHT22;4771;48.726;9.006;2023-03-25T16:47:19;11.70;99.00
9466;DHT22;4771;48.726;9.006;2023-03-25T16:49:48;11.60;99.30
9466;DHT22;4771;48.726;9.006;2023-03-25T16:52:21;11.60;99.90
9466;DHT22;4771;48.726;9.006;2023-03-25T16:57:50;11.40;99.90
9466;DHT22;4771;48.726;9.006;2023-03-25T17:00:19;11.30;99.90
9466;DHT22;4771;48.726;9.006;2023-03-25T17:02:47;11.30;99.90